Flugplatz Augsburg

Bericht für EDMA

vom 23.02. um 21:20 UTC

Wind 19 kt aus 250°

Sichtweite 10 km oder mehr

aufgebrochene Bewölkung in 2800 ft

bedeckt in 3600 ft

Temperatur 11.0°C

Taupunkt 8.0°C

Luftfeuchtigkeit 82%

Luftdruck 1019 hPa

EDMA 232120Z AUTO 25019KT 9999 // BKN028/// OVC036/// 11/08 Q1019

Prognose für EDMA

vom 23.02. um 00:00 UTC

Zwischen 00:00 UTC und 00:00 UTC

Wind 15 kt aus 240° in Böen 25 kt

Sichtweite 10 km oder mehr

keine signifikanten Wettererscheinungen

keine Wolken


Zwischen 00:00 UTC und 00:00 UTC zeitweise

Wind 25 kt aus 260° in Böen 45 kt


Zwischen 00:00 UTC und 00:00 UTC zeitweise

Regen

aufgebrochene Bewölkung in 1200 ft


Am 24.02. zwischen 00:00 und 00:00 UTC übergehend zu

Wind 10 kt aus 310°

Sichtweite 10 km oder mehr

keine signifikanten Wettererscheinungen

keine Wolken

TAF EDMA 231700Z 2318/2403 24015G25KT CAVOK TEMPO 2318/2401 26025G45KT TEMPO 2322/2403 RA BKN012 BECMG 2401/2403 31010KT
Impressum